Time;durP1;ratioP1;P1;durP2;ratioP2;P2;SDS_P1;SDS_P2;PMS_P1;PMS_P2;Temp;Humidity;BMP_temperature;BMP_pressure;BME280_temperature;BME280_humidity;BME280_pressure;Samples;Min_cycle;Max_cycle;Signal;HPM_P1;HPM_P2
2021/01/04 00:02:03;;;;;;;45.13;26.98;;;2.00;99.90;;;;;;4951320;28;20034;-82
2021/01/04 00:05:04;;;;;;;43.58;26.05;;;1.90;99.90;;;;;;4974824;28;20486;-82
2021/01/04 00:07:56;;;;;;;44.63;26.05;;;2.00;99.90;;;;;;4973575;28;20023;-83
2021/01/04 00:10:39;;;;;;;43.53;25.50;;;2.00;99.90;;;;;;4989697;28;20061;-82
2021/01/04 00:13:26;;;;;;;43.22;26.90;;;2.00;99.90;;;;;;4989664;28;20031;-82
2021/01/04 00:16:04;;;;;;;40.92;26.17;;;2.00;99.90;;;;;;4973642;28;20113;-83
2021/01/04 00:18:51;;;;;;;42.65;25.10;;;2.00;99.90;;;;;;4973973;28;20027;-83
2021/01/04 00:21:48;;;;;;;47.88;27.35;;;2.00;99.90;;;;;;4973410;28;20117;-82
2021/01/04 00:24:39;;;;;;;47.70;27.15;;;1.90;99.90;;;;;;4989689;28;20030;-82
2021/01/04 00:27:27;;;;;;;47.85;27.63;;;1.80;99.90;;;;;;4989486;28;20047;-83
2021/01/04 00:30:00;;;;;;;45.90;27.73;;;1.80;99.90;;;;;;4989446;28;20033;-83
2021/01/04 00:32:33;;;;;;;50.05;27.98;;;1.70;99.90;;;;;;4973309;28;20118;-83
2021/01/04 00:35:01;;;;;;;46.17;27.02;;;1.80;99.90;;;;;;4973264;28;20368;-82
2021/01/04 00:37:59;;;;;;;47.65;27.88;;;1.80;99.90;;;;;;4973243;28;20023;-83
2021/01/04 00:41:01;;;;;;;50.67;27.77;;;1.80;99.90;;;;;;4974635;28;20074;-83
2021/01/04 00:43:36;;;;;;;44.55;27.45;;;1.80;99.90;;;;;;4954909;28;20031;-83
2021/01/04 00:46:02;;;;;;;44.05;26.70;;;1.70;99.90;;;;;;4977102;28;20062;-83
2021/01/04 00:48:42;;;;;;;45.90;26.48;;;1.70;99.90;;;;;;4977030;28;20050;-82
2021/01/04 00:51:23;;;;;;;52.45;28.42;;;1.80;99.90;;;;;;4976949;28;20057;-82
2021/01/04 00:53:51;;;;;;;50.20;28.60;;;1.70;99.90;;;;;;4993137;28;20458;-81
2021/01/04 00:56:39;;;;;;;46.63;27.88;;;1.60;99.90;;;;;;4978149;28;20467;-82
2021/01/04 00:59:21;;;;;;;49.50;28.42;;;1.60;99.90;;;;;;4992993;28;20030;-82
2021/01/04 01:02:24;;;;;;;46.70;28.00;;;1.70;99.90;;;;;;4977992;28;20034;-83
2021/01/04 01:05:14;;;;;;;44.42;26.52;;;1.70;99.90;;;;;;4992904;28;20498;-82
2021/01/04 01:08:02;;;;;;;51.38;27.52;;;1.80;99.90;;;;;;4992908;28;20494;-82
2021/01/04 01:10:31;;;;;;;49.65;28.27;;;1.70;99.90;;;;;;4976659;28;20038;-82
2021/01/04 01:13:22;;;;;;;46.75;27.73;;;1.70;99.90;;;;;;4977778;28;20035;-82
2021/01/04 01:16:29;;;;;;;50.35;28.80;;;1.60;99.90;;;;;;4992798;28;20498;-83
2021/01/04 01:19:07;;;;;;;47.00;27.17;;;1.60;99.90;;;;;;4976400;28;20071;-82
2021/01/04 01:21:34;;;;;;;46.78;28.48;;;1.70;99.90;;;;;;4992638;28;20031;-82
2021/01/04 01:24:01;;;;;;;50.10;29.73;;;1.70;99.90;;;;;;4976304;28;20109;-82
2021/01/04 01:26:44;;;;;;;55.05;29.23;;;1.70;99.90;;;;;;4977590;28;20046;-83
2021/01/04 01:29:13;;;;;;;51.10;28.80;;;1.70;99.90;;;;;;4977549;28;20109;-82
2021/01/04 01:31:47;;;;;;;47.67;29.25;;;1.70;99.90;;;;;;4992420;28;20026;-83
2021/01/04 01:34:18;;;;;;;45.97;29.05;;;1.60;99.90;;;;;;4992133;28;20050;-82
2021/01/04 01:37:21;;;;;;;45.67;27.15;;;1.50;99.90;;;;;;4976124;28;20039;-82
2021/01/04 01:40:25;;;;;;;53.47;28.30;;;1.60;99.90;;;;;;4992195;28;20035;-82
2021/01/04 01:43:09;;;;;;;40.50;25.13;;;1.60;99.90;;;;;;4976094;28;20081;-82
2021/01/04 01:45:38;;;;;;;42.50;25.85;;;1.60;99.90;;;;;;4992306;28;20029;-82
2021/01/04 01:48:37;;;;;;;44.83;28.17;;;1.60;99.90;;;;;;4992116;28;20027;-82
2021/01/04 01:51:31;;;;;;;47.35;27.63;;;1.60;99.90;;;;;;4975883;28;20033;-82
2021/01/04 01:54:09;;;;;;;42.90;26.67;;;1.60;99.90;;;;;;4975198;28;20383;-82
2021/01/04 01:56:51;;;;;;;48.42;29.00;;;1.50;99.90;;;;;;4977612;28;20102;-83
2021/01/04 01:59:17;;;;;;;50.30;27.98;;;1.60;99.90;;;;;;4991847;28;20027;-82
2021/01/04 02:02:03;;;;;;;42.72;25.92;;;1.60;99.90;;;;;;4991859;28;20025;-83
2021/01/04 02:04:46;;;;;;;48.15;28.65;;;1.70;99.90;;;;;;4976247;28;20037;-82
2021/01/04 02:07:24;;;;;;;38.65;24.88;;;1.80;99.90;;;;;;4975583;28;20023;-82
2021/01/04 02:09:59;;;;;;;44.38;25.15;;;1.80;99.90;;;;;;4991676;28;20125;-82
2021/01/04 02:12:58;;;;;;;42.17;26.67;;;1.80;99.90;;;;;;4976804;28;20035;-82
2021/01/04 02:15:44;;;;;;;43.13;26.42;;;1.80;99.90;;;;;;4976941;28;20109;-82
2021/01/04 02:18:25;;;;;;;45.65;28.23;;;1.80;99.90;;;;;;4965393;28;20085;-83
2021/01/04 02:21:27;;;;;;;43.45;27.27;;;1.80;99.90;;;;;;4991531;28;20031;-82
2021/01/04 02:24:01;;;;;;;48.85;27.65;;;1.80;99.90;;;;;;4991422;28;20034;-82
2021/01/04 02:26:28;;;;;;;46.10;28.38;;;1.60;99.90;;;;;;4991491;28;20093;-82
2021/01/04 02:29:02;;;;;;;47.90;29.88;;;1.60;99.90;;;;;;4975112;28;20402;-83
2021/01/04 02:31:30;;;;;;;48.70;28.25;;;1.70;99.90;;;;;;4975191;28;20105;-83
2021/01/04 02:33:57;;;;;;;45.85;28.77;;;1.70;99.90;;;;;;4974933;28;20490;-83
2021/01/04 02:36:24;;;;;;;44.17;28.70;;;1.70;99.90;;;;;;4976288;28;20023;-83
2021/01/04 02:39:03;;;;;;;48.08;28.92;;;1.60;99.90;;;;;;4976480;28;20081;-82
2021/01/04 02:41:51;;;;;;;48.83;28.77;;;1.60;99.90;;;;;;4974995;28;20482;-82
2021/01/04 02:44:18;;;;;;;53.03;30.65;;;1.50;99.90;;;;;;4991060;28;20026;-82
2021/01/04 02:46:47;;;;;;;52.72;29.55;;;1.60;99.90;;;;;;4974913;28;20054;-82
2021/01/04 02:49:31;;;;;;;46.10;28.77;;;1.60;99.90;;;;;;4976064;28;20030;-83
2021/01/04 02:52:07;;;;;;;47.03;28.50;;;1.60;99.90;;;;;;4976663;28;20025;-82
2021/01/04 02:54:44;;;;;;;51.53;29.98;;;1.60;99.90;;;;;;4974834;28;20122;-82
2021/01/04 02:57:29;;;;;;;47.33;28.27;;;1.60;99.90;;;;;;4974689;28;20054;-82
2021/01/04 03:00:04;;;;;;;49.25;31.25;;;1.60;99.90;;;;;;4974638;28;20027;-82
2021/01/04 03:02:38;;;;;;;50.90;29.80;;;1.60;99.90;;;;;;4974752;28;20478;-82
2021/01/04 03:05:09;;;;;;;46.85;28.73;;;1.50;99.90;;;;;;4974302;28;20438;-82
2021/01/04 03:07:35;;;;;;;46.38;28.83;;;1.50;99.90;;;;;;4973937;28;20018;-83
2021/01/04 03:10:11;;;;;;;52.13;29.13;;;1.40;99.90;;;;;;4974450;28;20030;-82
2021/01/04 03:12:37;;;;;;;49.90;28.40;;;1.50;99.90;;;;;;4974459;28;20491;-82
2021/01/04 03:15:48;;;;;;;48.45;29.90;;;1.50;99.90;;;;;;4974348;28;20030;-82
2021/01/04 03:18:22;;;;;;;43.47;27.73;;;1.60;99.90;;;;;;4952010;28;20105;-82
2021/01/04 03:20:48;;;;;;;47.65;28.65;;;1.60;99.90;;;;;;4974270;28;20057;-83
2021/01/04 03:23:15;;;;;;;44.97;27.60;;;1.60;99.90;;;;;;4974099;28;20023;-83
2021/01/04 03:25:57;;;;;;;54.42;30.65;;;1.60;99.90;;;;;;4974201;28;20094;-82
2021/01/04 03:28:27;;;;;;;49.10;29.13;;;1.60;99.90;;;;;;4974444;28;20110;-82
2021/01/04 03:30:53;;;;;;;50.25;30.10;;;1.60;99.90;;;;;;4974085;28;20033;-82
2021/01/04 03:33:20;;;;;;;49.17;30.42;;;1.50;99.90;;;;;;4973903;28;20033;-82
2021/01/04 03:35:46;;;;;;;56.38;31.98;;;1.60;99.90;;;;;;4975201;28;20051;-82
2021/01/04 03:38:13;;;;;;;47.38;28.67;;;1.60;99.90;;;;;;4990137;28;20085;-82
2021/01/04 03:40:39;;;;;;;51.63;30.02;;;1.70;99.90;;;;;;4973899;28;20027;-82
2021/01/04 03:43:05;;;;;;;51.40;31.95;;;1.60;99.90;;;;;;4973967;28;20034;-82
2021/01/04 03:45:30;;;;;;;52.15;30.67;;;1.60;99.90;;;;;;4973861;28;20022;-82
2021/01/04 03:47:56;;;;;;;42.47;27.10;;;1.50;99.90;;;;;;4973880;28;20368;-82
2021/01/04 03:50:22;;;;;;;47.63;29.48;;;1.50;99.90;;;;;;4973772;28;20030;-82
2021/01/04 03:52:48;;;;;;;53.90;30.77;;;1.50;99.90;;;;;;4975058;28;20027;-82
2021/01/04 03:55:16;;;;;;;45.80;28.38;;;1.50;99.90;;;;;;4973636;28;20029;-82
2021/01/04 03:57:42;;;;;;;52.50;31.95;;;1.60;99.90;;;;;;4973613;28;20034;-82
2021/01/04 04:00:09;;;;;;;52.03;30.25;;;1.60;99.90;;;;;;4973543;28;20154;-82
2021/01/04 04:02:35;;;;;;;52.17;30.10;;;1.60;99.90;;;;;;4973513;28;20050;-82
2021/01/04 04:05:01;;;;;;;53.55;33.00;;;1.60;99.90;;;;;;4973497;28;20066;-82
2021/01/04 04:07:27;;;;;;;55.00;32.65;;;1.50;99.90;;;;;;4973494;28;20034;-82
2021/01/04 04:09:52;;;;;;;49.80;29.95;;;1.50;99.90;;;;;;4973430;28;20081;-82
2021/01/04 04:12:18;;;;;;;48.17;30.40;;;1.70;99.90;;;;;;4973424;28;20066;-82
2021/01/04 04:14:48;;;;;;;47.85;27.85;;;1.70;99.90;;;;;;4973407;28;20049;-82
2021/01/04 04:17:15;;;;;;;45.38;28.33;;;1.80;99.90;;;;;;4973327;28;20026;-82
2021/01/04 04:19:47;;;;;;;53.45;30.55;;;1.80;99.90;;;;;;4973530;28;20478;-82
2021/01/04 04:22:13;;;;;;;51.38;29.92;;;1.70;99.90;;;;;;4973379;28;20443;-82
2021/01/04 04:24:40;;;;;;;53.60;30.98;;;1.80;99.90;;;;;;4973211;28;20054;-82
2021/01/04 04:27:10;;;;;;;46.58;29.50;;;1.90;99.90;;;;;;4973279;28;20471;-82
2021/01/04 04:29:40;;;;;;;49.40;28.63;;;1.70;99.90;;;;;;4974576;28;20082;-82
2021/01/04 04:32:08;;;;;;;53.20;31.83;;;1.70;99.90;;;;;;4973237;28;20121;-82
2021/01/04 04:34:35;;;;;;;51.60;31.55;;;1.70;99.90;;;;;;4974332;28;20582;-82
2021/01/04 04:37:01;;;;;;;53.70;32.53;;;1.70;99.90;;;;;;4973181;28;20031;-82
2021/01/04 04:39:27;;;;;;;55.17;32.35;;;1.60;99.90;;;;;;4973358;28;20031;-82
2021/01/04 04:41:54;;;;;;;55.83;30.98;;;1.50;99.90;;;;;;4974415;28;20029;-82
2021/01/04 04:44:20;;;;;;;62.63;32.22;;;1.50;99.90;;;;;;4973173;28;20023;-82
2021/01/04 04:47:04;;;;;;;50.03;31.65;;;1.50;99.90;;;;;;4989308;28;20023;-82
2021/01/04 04:49:41;;;;;;;52.97;32.25;;;1.50;99.90;;;;;;4989320;28;20050;-83
2021/01/04 04:52:29;;;;;;;51.40;30.52;;;1.50;99.90;;;;;;4989264;28;20031;-82
2021/01/04 04:55:22;;;;;;;54.10;31.35;;;1.50;99.90;;;;;;4974338;28;20030;-82
2021/01/04 04:58:20;;;;;;;49.78;28.33;;;1.50;99.90;;;;;;4989339;28;20122;-82
2021/01/04 05:01:02;;;;;;;50.70;30.60;;;1.50;99.90;;;;;;4989196;28;20390;-82
2021/01/04 05:03:56;;;;;;;49.50;30.13;;;1.60;99.90;;;;;;4973314;28;20054;-82
2021/01/04 05:06:37;;;;;;;50.25;29.85;;;1.50;99.90;;;;;;4974282;28;20027;-82
2021/01/04 05:09:06;;;;;;;51.88;30.42;;;1.50;99.90;;;;;;4972952;28;20030;-83
2021/01/04 05:11:36;;;;;;;51.95;31.20;;;1.60;99.90;;;;;;4989380;28;20062;-83
2021/01/04 05:14:06;;;;;;;45.83;28.92;;;1.70;99.90;;;;;;4972920;28;20030;-82
2021/01/04 05:17:04;;;;;;;44.22;27.25;;;1.70;99.90;;;;;;4972938;28;20018;-82
2021/01/04 05:20:00;;;;;;;44.65;28.50;;;1.80;99.90;;;;;;4943493;28;20070;-82
2021/01/04 05:22:45;;;;;;;47.40;29.55;;;2.00;99.90;;;;;;4989070;28;20019;-83
2021/01/04 05:25:32;;;;;;;44.28;26.95;;;1.90;99.90;;;;;;4988991;28;20058;-82
2021/01/04 05:28:13;;;;;;;48.60;29.20;;;1.80;99.90;;;;;;4974290;28;20054;-83
2021/01/04 05:30:47;;;;;;;51.20;29.92;;;1.60;99.90;;;;;;4975661;28;20030;-82
2021/01/04 05:33:16;;;;;;;50.40;28.52;;;1.60;99.90;;;;;;4992294;28;20031;-83
2021/01/04 05:35:45;;;;;;;46.83;30.27;;;1.70;99.90;;;;;;4992076;28;20054;-82
2021/01/04 05:38:10;;;;;;;50.47;30.60;;;1.70;99.90;;;;;;4976177;28;20046;-82
2021/01/04 05:40:58;;;;;;;44.30;28.17;;;1.70;99.90;;;;;;4992300;28;20026;-82
2021/01/04 05:43:33;;;;;;;50.55;30.23;;;1.80;99.90;;;;;;4992200;28;20023;-83
2021/01/04 05:46:07;;;;;;;48.25;28.80;;;1.70;99.90;;;;;;4977285;28;20019;-83
2021/01/04 05:48:38;;;;;;;44.35;27.75;;;1.60;99.90;;;;;;4976022;28;20027;-83
2021/01/04 05:51:13;;;;;;;44.45;27.95;;;1.60;99.90;;;;;;4992146;28;20034;-83
2021/01/04 05:53:39;;;;;;;47.42;29.38;;;1.60;99.90;;;;;;4975936;28;20097;-82
2021/01/04 05:56:05;;;;;;;50.85;31.77;;;1.60;99.90;;;;;;4975819;28;20386;-83
2021/01/04 05:58:35;;;;;;;51.00;31.17;;;1.50;99.90;;;;;;4977030;28;20035;-82
2021/01/04 06:01:27;;;;;;;50.13;29.60;;;1.50;99.90;;;;;;4975671;28;20039;-83
2021/01/04 06:04:07;;;;;;;47.38;28.98;;;1.60;99.90;;;;;;4976223;28;20074;-82
2021/01/04 06:07:02;;;;;;;58.38;33.05;;;1.70;99.90;;;;;;4975674;28;20479;-83
2021/01/04 06:09:29;;;;;;;52.45;31.27;;;1.60;99.90;;;;;;4975543;28;20118;-82
2021/01/04 06:11:59;;;;;;;47.33;27.65;;;1.50;99.90;;;;;;4975512;28;20034;-82
2021/01/04 06:14:28;;;;;;;52.17;31.33;;;1.50;99.90;;;;;;4975566;28;20490;-82
2021/01/04 06:17:28;;;;;;;56.28;31.27;;;1.50;99.90;;;;;;4975362;28;20030;-82
2021/01/04 06:19:57;;;;;;;50.85;30.50;;;1.60;99.90;;;;;;4972339;28;20035;-82
2021/01/04 06:22:31;;;;;;;52.03;30.75;;;1.60;99.90;;;;;;4975375;28;20026;-82
2021/01/04 06:25:05;;;;;;;51.58;30.63;;;1.70;99.90;;;;;;4975284;28;20174;-82
2021/01/04 06:27:37;;;;;;;45.40;28.70;;;1.60;99.90;;;;;;4975345;28;20089;-82
2021/01/04 06:30:24;;;;;;;47.90;29.10;;;1.70;99.90;;;;;;4976754;28;20173;-82
2021/01/04 06:32:51;;;;;;;54.05;30.65;;;1.80;99.90;;;;;;4991463;28;20078;-82
2021/01/04 06:35:17;;;;;;;52.25;30.00;;;1.80;99.90;;;;;;4976187;28;20399;-82
2021/01/04 06:37:43;;;;;;;50.80;30.80;;;1.80;99.90;;;;;;4991302;28;20027;-82
2021/01/04 06:40:40;;;;;;;48.13;29.30;;;1.70;99.90;;;;;;4974761;28;20038;-82
2021/01/04 06:43:32;;;;;;;50.70;29.90;;;1.80;99.90;;;;;;4974963;28;20109;-82
2021/01/04 06:46:04;;;;;;;57.53;32.72;;;1.70;99.90;;;;;;4975006;28;20471;-82
2021/01/04 06:49:09;;;;;;;62.05;32.92;;;1.70;99.90;;;;;;4991130;28;20027;-82
2021/01/04 06:51:53;;;;;;;54.33;30.40;;;1.50;99.90;;;;;;4916487;29;20036;-82
2021/01/04 06:54:34;;;;;;;54.88;32.97;;;1.60;99.90;;;;;;4971829;28;20066;-82
2021/01/04 06:57:30;;;;;;;57.55;32.25;;;1.70;99.90;;;;;;4990831;28;20030;-82
2021/01/04 07:00:23;;;;;;;56.22;33.17;;;1.60;99.90;;;;;;4990771;28;20390;-82
2021/01/04 07:03:07;;;;;;;53.88;29.42;;;1.50;99.90;;;;;;4974650;28;20027;-81
2021/01/04 07:05:54;;;;;;;57.78;32.58;;;1.60;99.90;;;;;;4990740;28;20031;-82
2021/01/04 07:08:38;;;;;;;62.97;32.60;;;1.70;99.90;;;;;;4990748;28;20069;-82
2021/01/04 07:11:12;;;;;;;65.65;34.85;;;1.60;99.90;;;;;;4975690;28;20106;-82
2021/01/04 07:13:50;;;;;;;;;;;1.60;99.90;;;;;;4991026;28;20026;-82
2021/01/04 07:16:15;;;;;;;55.28;29.63;;;1.70;99.90;;;;;;4974382;28;19906;-82
2021/01/04 07:18:50;;;;;;;57.28;30.75;;;1.60;99.90;;;;;;4990440;28;20031;-82
2021/01/04 07:21:25;;;;;;;53.13;29.23;;;1.70;99.90;;;;;;4990369;28;20474;-82
2021/01/04 07:24:33;;;;;;;59.50;31.33;;;1.70;99.90;;;;;;4975658;28;20023;-82
2021/01/04 07:27:17;;;;;;;57.92;32.83;;;1.90;99.90;;;;;;4973808;28;20070;-82
2021/01/04 07:30:01;;;;;;;56.15;32.42;;;1.80;99.90;;;;;;4990320;28;20034;-82
2021/01/04 07:32:44;;;;;;;56.45;30.42;;;1.80;99.90;;;;;;4990227;28;20062;-82
2021/01/04 07:35:17;;;;;;;55.30;32.20;;;1.80;99.90;;;;;;4973851;28;20513;-82
2021/01/04 07:38:01;;;;;;;54.47;31.20;;;1.80;99.90;;;;;;4973983;28;20076;-83
2021/01/04 07:40:39;;;;;;;55.42;32.08;;;1.90;99.90;;;;;;4990024;28;20073;-82
2021/01/04 07:43:45;;;;;;;52.95;30.90;;;1.90;99.90;;;;;;4990141;28;20118;-82
2021/01/04 07:46:29;;;;;;;59.28;32.50;;;1.90;99.90;;;;;;4946837;28;20035;-82
2021/01/04 07:49:07;;;;;;;58.80;32.60;;;1.90;99.90;;;;;;4990082;28;20031;-82
2021/01/04 07:52:05;;;;;;;55.60;31.90;;;1.70;99.90;;;;;;4989513;28;20031;-82
2021/01/04 07:54:50;;;;;;;64.63;34.78;;;1.80;99.90;;;;;;4970723;28;20035;-82
2021/01/04 07:57:48;;;;;;;63.00;34.83;;;1.80;99.90;;;;;;4989850;28;20022;-82
2021/01/04 08:00:46;;;;;;;66.10;33.45;;;1.70;99.90;;;;;;4974799;28;20035;-83
2021/01/04 08:03:24;;;;;;;65.78;35.08;;;1.70;99.90;;;;;;4973583;28;20046;-82
2021/01/04 08:06:13;;;;;;;59.30;33.65;;;1.80;99.90;;;;;;4974795;28;20033;-82
2021/01/04 08:09:23;;;;;;;62.85;33.13;;;1.80;99.90;;;;;;4974781;28;20041;-82
2021/01/04 08:12:23;;;;;;;59.35;32.35;;;1.80;99.90;;;;;;4953849;28;20109;-82
2021/01/04 08:15:02;;;;;;;63.85;34.88;;;1.80;99.90;;;;;;4989575;28;20026;-82
2021/01/04 08:17:40;;;;;;;61.33;33.28;;;1.80;99.90;;;;;;4974673;28;20023;-82
2021/01/04 08:20:07;;;;;;;60.75;32.97;;;1.70;99.90;;;;;;4989409;28;20023;-82
2021/01/04 08:23:02;;;;;;;62.17;34.08;;;1.80;99.90;;;;;;4973354;28;20030;-82
2021/01/04 08:25:49;;;;;;;59.42;33.28;;;1.80;99.90;;;;;;4989472;28;20019;-82
2021/01/04 08:28:23;;;;;;;62.53;35.22;;;1.80;99.90;;;;;;4973309;28;20031;-82
2021/01/04 08:30:58;;;;;;;63.60;33.55;;;1.80;99.90;;;;;;4989473;28;20030;-82
2021/01/04 08:33:47;;;;;;;62.45;35.92;;;1.80;99.90;;;;;;4973238;28;20049;-81
2021/01/04 08:36:46;;;;;;;63.95;36.13;;;1.80;99.90;;;;;;4989473;28;20126;-82
2021/01/04 08:39:29;;;;;;;64.22;35.30;;;1.70;99.90;;;;;;4973287;28;20122;-82
2021/01/04 08:42:04;;;;;;;63.30;35.47;;;1.70;99.90;;;;;;4973207;28;20027;-82
2021/01/04 08:44:32;;;;;;;56.95;31.90;;;1.70;99.90;;;;;;4989246;28;20038;-82
2021/01/04 08:47:25;;;;;;;61.78;34.50;;;1.80;99.90;;;;;;4973082;28;20026;-81
2021/01/04 08:50:02;;;;;;;64.93;35.88;;;1.80;99.90;;;;;;4973153;28;20104;-82
2021/01/04 08:52:56;;;;;;;59.97;33.60;;;1.90;99.90;;;;;;4974616;28;20099;-82
2021/01/04 08:55:31;;;;;;;63.63;33.20;;;2.00;99.90;;;;;;4974354;28;20470;-82
2021/01/04 08:58:01;;;;;;;59.65;33.90;;;1.90;99.90;;;;;;4973061;28;20042;-82
2021/01/04 09:00:29;;;;;;;67.32;36.20;;;1.90;99.90;;;;;;4973031;28;20122;-81
2021/01/04 09:02:56;;;;;;;63.85;35.72;;;1.90;99.90;;;;;;4973059;28;20176;-82
2021/01/04 09:05:38;;;;;;;75.05;40.85;;;1.90;99.90;;;;;;4975516;28;20030;-82
2021/01/04 09:08:06;;;;;;;59.75;33.92;;;1.80;99.90;;;;;;4978006;28;20025;-82
2021/01/04 09:10:50;;;;;;;58.08;32.78;;;1.80;99.90;;;;;;4976601;28;20454;-82
2021/01/04 09:13:22;;;;;;;66.53;36.30;;;2.00;99.90;;;;;;4976572;28;20062;-82
2021/01/04 09:15:50;;;;;;;55.83;31.65;;;2.00;99.90;;;;;;4992796;28;20045;-82
2021/01/04 09:18:44;;;;;;;58.25;33.00;;;2.00;99.90;;;;;;4978051;28;20026;-82
2021/01/04 09:21:27;;;;;;;56.42;32.50;;;2.10;99.90;;;;;;4977719;28;20031;-82
2021/01/04 09:24:09;;;;;;;59.72;33.80;;;2.00;99.90;;;;;;4992559;28;20035;-81
2021/01/04 09:26:37;;;;;;;61.97;34.28;;;2.10;99.90;;;;;;4977621;28;20072;-82
2021/01/04 09:29:06;;;;;;;56.05;32.70;;;2.00;99.90;;;;;;4976278;28;20023;-82
2021/01/04 09:31:32;;;;;;;51.30;30.10;;;1.90;99.90;;;;;;4992722;28;20066;-82
2021/01/04 09:33:59;;;;;;;55.50;32.80;;;2.10;99.90;;;;;;4977262;28;20394;-81
2021/01/04 09:36:24;;;;;;;58.47;33.95;;;2.10;99.90;;;;;;4976980;28;20038;-81
2021/01/04 09:39:07;;;;;;;58.60;33.15;;;2.10;99.90;;;;;;4976065;28;20030;-81
2021/01/04 09:41:33;;;;;;;60.88;33.53;;;2.20;99.90;;;;;;4975976;28;20034;-81
2021/01/04 09:44:09;;;;;;;57.58;33.35;;;2.20;99.90;;;;;;4977504;28;20459;-81
2021/01/04 09:46:50;;;;;;;55.05;32.25;;;2.30;99.90;;;;;;4975983;28;20548;-81
2021/01/04 09:49:31;;;;;;;62.63;34.08;;;2.30;99.90;;;;;;4975856;28;20053;-81
2021/01/04 09:52:03;;;;;;;56.15;33.13;;;2.20;99.90;;;;;;4991990;28;20023;-81
2021/01/04 09:54:45;;;;;;;53.17;32.60;;;2.10;99.90;;;;;;4977074;28;20026;-81
2021/01/04 09:57:10;;;;;;;60.97;32.90;;;2.20;99.90;;;;;;4975775;28;20034;-82
2021/01/04 09:59:41;;;;;;;54.95;31.85;;;2.20;99.90;;;;;;4976962;28;20019;-81
2021/01/04 10:02:15;;;;;;;52.47;30.83;;;2.20;99.90;;;;;;4975730;28;20061;-81
2021/01/04 10:04:42;;;;;;;60.40;33.85;;;2.30;99.90;;;;;;4975734;28;20110;-81
2021/01/04 10:07:13;;;;;;;56.08;33.28;;;2.20;99.90;;;;;;4975641;28;20431;-82
2021/01/04 10:09:42;;;;;;;55.63;32.92;;;2.20;99.90;;;;;;4977108;28;20023;-81
2021/01/04 10:12:09;;;;;;;58.72;33.72;;;2.20;99.90;;;;;;4975536;28;20030;-81
2021/01/04 10:14:35;;;;;;;55.88;32.00;;;2.10;99.90;;;;;;4991323;28;20483;-81
2021/01/04 10:17:03;;;;;;;54.65;32.10;;;2.20;99.90;;;;;;4975341;28;20078;-81
2021/01/04 10:19:34;;;;;;;52.08;31.65;;;2.20;99.90;;;;;;4975324;28;20034;-81
2021/01/04 10:22:10;;;;;;;56.38;33.15;;;2.20;99.90;;;;;;4975356;28;20026;-81
2021/01/04 10:24:54;;;;;;;54.03;30.98;;;2.20;99.90;;;;;;4975256;28;20030;-82
2021/01/04 10:27:23;;;;;;;57.10;32.65;;;2.20;99.90;;;;;;4976617;28;20385;-81
2021/01/04 10:29:52;;;;;;;56.00;32.80;;;2.30;99.90;;;;;;4976494;28;20496;-81
2021/01/04 10:32:27;;;;;;;53.30;31.38;;;2.30;99.90;;;;;;4976475;28;20023;-81
2021/01/04 10:34:54;;;;;;;55.92;33.47;;;2.30;99.90;;;;;;4974883;28;20053;-81
2021/01/04 10:37:57;;;;;;;54.67;32.22;;;2.20;99.90;;;;;;4976624;28;20035;-81
2021/01/04 10:40:26;;;;;;;56.53;33.40;;;2.20;99.90;;;;;;4991167;28;20030;-81
2021/01/04 10:43:05;;;;;;;49.85;29.75;;;2.30;99.90;;;;;;4976210;28;20030;-81
2021/01/04 10:45:40;;;;;;;53.35;31.90;;;2.30;99.90;;;;;;4974951;28;20027;-82
2021/01/04 10:48:13;;;;;;;53.72;30.98;;;2.30;99.90;;;;;;4974895;28;20505;-82
2021/01/04 10:50:48;;;;;;;51.63;31.08;;;2.40;99.90;;;;;;4974846;28;20055;-82
2021/01/04 10:53:28;;;;;;;50.90;30.45;;;2.30;99.90;;;;;;4976072;28;20023;-82
2021/01/04 10:56:09;;;;;;;56.05;32.00;;;2.20;99.90;;;;;;4990836;28;20553;-82
2021/01/04 10:59:00;;;;;;;54.30;32.35;;;2.20;99.90;;;;;;4975890;28;20034;-81
2021/01/04 11:01:33;;;;;;;59.35;33.80;;;2.20;99.90;;;;;;4966789;28;20045;-81
2021/01/04 11:04:05;;;;;;;56.58;32.17;;;2.20;99.90;;;;;;4974602;28;20396;-81
2021/01/04 11:06:35;;;;;;;53.28;32.25;;;2.30;99.90;;;;;;4976110;28;20027;-82
2021/01/04 11:09:19;;;;;;;52.63;31.17;;;2.30;99.90;;;;;;4975615;28;20386;-81
2021/01/04 11:11:50;;;;;;;56.67;31.95;;;2.30;99.90;;;;;;4974403;28;20034;-82
2021/01/04 11:14:22;;;;;;;55.30;30.38;;;2.20;99.90;;;;;;4974301;28;20498;-81
2021/01/04 11:16:53;;;;;;;56.75;31.70;;;2.30;99.90;;;;;;4974200;28;20118;-81
2021/01/04 11:19:30;;;;;;;51.88;29.25;;;2.30;99.90;;;;;;4975395;28;20054;-81
2021/01/04 11:22:07;;;;;;;50.35;30.27;;;2.30;99.90;;;;;;4974223;28;20057;-82
2021/01/04 11:24:33;;;;;;;54.25;33.53;;;2.30;99.90;;;;;;4974458;28;20471;-81
2021/01/04 11:26:59;;;;;;;51.33;28.42;;;2.30;99.90;;;;;;4973285;28;20030;-81
2021/01/04 11:29:25;;;;;;;50.50;30.15;;;2.30;99.90;;;;;;4975631;28;20023;-81
2021/01/04 11:31:50;;;;;;;51.45;30.08;;;2.30;99.90;;;;;;4975555;28;20030;-82
2021/01/04 11:34:16;;;;;;;46.22;27.60;;;2.30;99.90;;;;;;4973960;28;20467;-81
2021/01/04 11:36:42;;;;;;;47.67;27.10;;;2.30;99.90;;;;;;4974255;28;20468;-81
2021/01/04 11:39:08;;;;;;;40.38;25.73;;;2.30;99.90;;;;;;4973958;28;20026;-81
2021/01/04 11:41:33;;;;;;;45.30;26.25;;;2.20;99.90;;;;;;4975136;28;20093;-81
2021/01/04 11:43:59;;;;;;;45.03;26.90;;;2.20;99.90;;;;;;4973815;28;20027;-81
2021/01/04 11:46:25;;;;;;;42.90;25.98;;;2.20;99.90;;;;;;4975034;28;20509;-81
2021/01/04 11:48:56;;;;;;;43.10;26.13;;;2.30;99.90;;;;;;4973805;28;20384;-81
2021/01/04 11:51:21;;;;;;;39.92;23.45;;;2.30;99.90;;;;;;4975054;28;20089;-81
2021/01/04 11:53:49;;;;;;;43.55;27.42;;;2.30;99.90;;;;;;4973751;28;20490;-81
2021/01/04 11:56:15;;;;;;;46.20;26.85;;;2.30;99.90;;;;;;4975025;28;20030;-81
2021/01/04 11:58:41;;;;;;;49.30;30.63;;;2.20;99.90;;;;;;4974806;28;20034;-82
2021/01/04 12:01:07;;;;;;;39.67;24.77;;;2.30;99.90;;;;;;4974828;28;20367;-82
2021/01/04 12:03:32;;;;;;;42.47;24.83;;;2.30;99.90;;;;;;4973629;28;20022;-82
2021/01/04 12:05:58;;;;;;;38.70;23.20;;;2.30;99.90;;;;;;4973537;28;20501;-81
2021/01/04 12:08:24;;;;;;;37.35;22.55;;;2.20;99.90;;;;;;4973439;28;20492;-82
2021/01/04 12:10:49;;;;;;;35.78;22.60;;;2.10;99.90;;;;;;4973388;28;20045;-82
2021/01/04 12:13:15;;;;;;;42.53;24.75;;;2.10;99.90;;;;;;4974983;28;20034;-81
2021/01/04 12:15:41;;;;;;;43.22;25.52;;;2.00;99.90;;;;;;4974707;28;20023;-81
2021/01/04 12:18:07;;;;;;;49.13;28.55;;;2.00;99.90;;;;;;4974658;28;20031;-82
2021/01/04 12:20:32;;;;;;;43.42;25.90;;;2.00;99.90;;;;;;4989454;28;20034;-82
2021/01/04 12:22:58;;;;;;;44.97;26.27;;;2.00;99.90;;;;;;4973316;28;20046;-81
2021/01/04 12:25:24;;;;;;;56.03;29.55;;;2.00;99.90;;;;;;4974873;28;20019;-81
2021/01/04 12:27:50;;;;;;;57.67;31.42;;;2.00;99.90;;;;;;4973542;28;20027;-82
2021/01/04 12:30:16;;;;;;;70.88;35.38;;;2.00;99.90;;;;;;4973287;28;20105;-81
2021/01/04 12:32:41;;;;;;;55.58;30.10;;;2.00;99.90;;;;;;4973301;28;20030;-82
2021/01/04 12:35:11;;;;;;;45.88;25.35;;;2.00;99.90;;;;;;4974412;28;20174;-82
2021/01/04 12:37:37;;;;;;;40.55;23.13;;;2.00;99.90;;;;;;4989397;28;20027;-82
2021/01/04 12:40:09;;;;;;;49.45;26.80;;;2.00;99.90;;;;;;4977110;28;20030;-81
2021/01/04 12:42:35;;;;;;;37.00;23.35;;;2.00;99.90;;;;;;4977201;28;20382;-81
2021/01/04 12:45:02;;;;;;;38.17;21.95;;;1.90;99.90;;;;;;4977155;28;20031;-82
2021/01/04 12:47:28;;;;;;;43.70;24.73;;;1.90;99.90;;;;;;4977048;28;20537;-81
2021/01/04 12:49:53;;;;;;;53.20;28.08;;;1.90;99.90;;;;;;4978381;28;20022;-82
2021/01/04 12:52:19;;;;;;;48.15;27.52;;;2.00;99.90;;;;;;4976997;28;20082;-81
2021/01/04 12:54:45;;;;;;;45.45;24.80;;;2.10;99.90;;;;;;4978188;28;20081;-81
2021/01/04 12:57:11;;;;;;;27.45;18.02;;;2.00;99.90;;;;;;4978221;28;20022;-81
2021/01/04 12:59:41;;;;;;;35.17;19.92;;;1.90;99.90;;;;;;4976812;28;20037;-81
2021/01/04 13:02:10;;;;;;;34.33;20.40;;;2.00;99.90;;;;;;4976831;28;20434;-81
2021/01/04 13:04:41;;;;;;;34.83;19.08;;;1.90;99.90;;;;;;4978125;28;20471;-81
2021/01/04 13:07:07;;;;;;;33.22;19.92;;;1.80;99.90;;;;;;4976814;28;20110;-81
2021/01/04 13:09:33;;;;;;;31.48;19.38;;;1.80;99.90;;;;;;4976753;28;20110;-81
2021/01/04 13:12:00;;;;;;;33.85;20.08;;;1.80;99.90;;;;;;4977557;28;20035;-81
2021/01/04 13:14:26;;;;;;;35.63;20.08;;;1.80;99.90;;;;;;4977843;28;20524;-81
2021/01/04 13:16:52;;;;;;;31.63;18.70;;;1.90;99.90;;;;;;4992825;28;20118;-82
2021/01/04 13:19:18;;;;;;;31.63;18.20;;;1.80;99.90;;;;;;4976494;28;20030;-81
2021/01/04 13:21:44;;;;;;;23.60;14.90;;;1.80;99.90;;;;;;4976495;28;20478;-81
2021/01/04 13:24:15;;;;;;;22.52;14.50;;;1.80;99.90;;;;;;4976401;28;20379;-82